createdAt,value
2022-08-03T00:01:29.342Z,19.72
2022-08-03T00:03:56.102Z,19.70
2022-08-03T00:06:22.859Z,19.67
2022-08-03T00:08:49.744Z,19.64
2022-08-03T00:11:16.495Z,19.59
2022-08-03T00:13:43.249Z,19.58
2022-08-03T00:16:11.089Z,19.54
2022-08-03T00:18:37.973Z,19.49
2022-08-03T00:21:05.813Z,19.48
2022-08-03T00:23:51.312Z,19.43
2022-08-03T00:26:22.858Z,19.41
2022-08-03T00:28:50.459Z,19.39
2022-08-03T00:31:27.767Z,19.37
2022-08-03T00:34:04.509Z,19.35
2022-08-03T00:36:31.240Z,19.34
2022-08-03T00:38:58.243Z,19.31
2022-08-03T00:41:25.117Z,19.30
2022-08-03T00:43:51.869Z,19.30
2022-08-03T00:46:21.583Z,19.27
2022-08-03T00:48:49.953Z,19.26
2022-08-03T00:51:16.707Z,19.25
2022-08-03T00:53:43.707Z,19.22
2022-08-03T00:56:14.662Z,19.19
2022-08-03T00:58:41.929Z,19.16
2022-08-03T01:01:08.821Z,19.13
2022-08-03T01:03:35.665Z,19.12
2022-08-03T01:06:18.672Z,19.07
2022-08-03T01:09:11.663Z,19.04
2022-08-03T01:12:14.638Z,19.00
2022-08-03T01:15:03.533Z,18.97
2022-08-03T01:17:51.388Z,18.92
2022-08-03T01:20:21.017Z,18.90
2022-08-03T01:23:12.493Z,18.88
2022-08-03T01:26:00.610Z,18.85
2022-08-03T01:29:24.362Z,18.80
2022-08-03T01:32:53.556Z,18.77
2022-08-03T01:34:55.815Z,18.73
2022-08-03T01:37:27.998Z,18.70
2022-08-03T01:39:58.202Z,18.70
2022-08-03T01:42:26.156Z,18.66
2022-08-03T01:44:54.114Z,18.64
2022-08-03T01:47:23.039Z,18.63
2022-08-03T01:49:51.476Z,18.59
2022-08-03T01:52:20.457Z,18.56
2022-08-03T01:54:51.229Z,18.56
2022-08-03T01:57:19.194Z,18.56
2022-08-03T01:59:48.835Z,18.53
2022-08-03T02:02:32.813Z,18.53
2022-08-03T02:05:03.000Z,18.53
2022-08-03T02:07:32.151Z,18.51
2022-08-03T02:10:01.298Z,18.49
2022-08-03T02:12:30.097Z,18.47
2022-08-03T02:14:57.711Z,18.46
2022-08-03T02:17:39.088Z,18.43
2022-08-03T02:20:08.868Z,18.41
2022-08-03T02:22:38.490Z,18.36
2022-08-03T02:25:05.488Z,18.33
2022-08-03T02:27:38.408Z,18.33
2022-08-03T02:30:10.893Z,18.29
2022-08-03T02:32:41.024Z,18.26
2022-08-03T02:35:13.167Z,18.25
2022-08-03T02:37:45.167Z,18.24
2022-08-03T02:40:19.074Z,18.23
2022-08-03T02:42:47.255Z,18.26
2022-08-03T02:45:17.236Z,18.26
2022-08-03T02:47:53.387Z,18.25
2022-08-03T02:50:23.077Z,18.23
2022-08-03T02:52:51.438Z,18.25
2022-08-03T02:55:20.602Z,18.23
2022-08-03T02:57:48.072Z,18.22
2022-08-03T03:00:27.126Z,18.19
2022-08-03T03:02:58.745Z,18.21
2022-08-03T03:05:54.338Z,18.20
2022-08-03T03:08:17.707Z,18.17
2022-08-03T03:10:46.763Z,18.15
2022-08-03T03:13:16.026Z,18.14
2022-08-03T03:15:43.857Z,18.13
2022-08-03T03:18:11.362Z,18.10
2022-08-03T03:20:40.982Z,18.06
2022-08-03T03:23:09.783Z,18.03
2022-08-03T03:25:37.490Z,18.02
2022-08-03T03:28:06.374Z,17.98
2022-08-03T03:30:34.498Z,17.98
2022-08-03T03:33:01.259Z,17.93
2022-08-03T03:35:28.244Z,17.93
2022-08-03T03:37:55.033Z,17.90
2022-08-03T03:40:22.727Z,17.89
2022-08-03T03:42:50.563Z,17.89
2022-08-03T03:45:17.924Z,17.90
2022-08-03T03:47:44.680Z,17.90
2022-08-03T03:50:12.639Z,17.87
2022-08-03T03:52:39.395Z,17.85
2022-08-03T03:55:06.775Z,17.84
2022-08-03T03:57:34.592Z,17.82
2022-08-03T04:00:01.277Z,17.82
2022-08-03T04:02:27.866Z,17.82
2022-08-03T04:05:13.104Z,17.79
2022-08-03T04:08:18.385Z,17.78
2022-08-03T04:10:59.186Z,17.78
2022-08-03T04:13:32.181Z,17.79
2022-08-03T04:16:00.137Z,17.77
2022-08-03T04:18:30.759Z,17.76
2022-08-03T04:21:01.821Z,17.76
2022-08-03T04:23:30.979Z,17.78
2022-08-03T04:25:59.544Z,17.79
2022-08-03T04:28:30.724Z,17.80
2022-08-03T04:31:01.103Z,17.83
2022-08-03T04:33:31.335Z,17.83
2022-08-03T04:36:03.378Z,17.84
2022-08-03T04:38:33.364Z,17.84
2022-08-03T04:41:01.708Z,17.86
2022-08-03T04:43:30.962Z,17.88
2022-08-03T04:45:59.402Z,17.90
2022-08-03T04:48:26.641Z,17.93
2022-08-03T04:50:54.490Z,17.92
2022-08-03T04:53:21.478Z,17.95
2022-08-03T04:55:48.474Z,17.98
2022-08-03T04:58:15.116Z,18.04
2022-08-03T05:00:42.472Z,18.07
2022-08-03T05:03:23.962Z,18.11
2022-08-03T05:06:01.989Z,18.13
2022-08-03T05:08:41.203Z,18.12
2022-08-03T05:11:15.355Z,18.17
2022-08-03T05:13:42.346Z,18.20
2022-08-03T05:16:09.104Z,18.21
2022-08-03T05:18:36.121Z,18.23
2022-08-03T05:21:03.103Z,18.29
2022-08-03T05:23:29.748Z,18.29
2022-08-03T05:25:56.978Z,18.32
2022-08-03T05:28:23.742Z,18.33
2022-08-03T05:30:50.737Z,18.34
2022-08-03T05:33:17.492Z,18.39
2022-08-03T05:35:56.016Z,18.44
2022-08-03T05:38:34.896Z,18.46
2022-08-03T05:41:21.590Z,18.52
2022-08-03T05:43:50.499Z,18.61
2022-08-03T05:46:17.249Z,19.44
2022-08-03T05:48:44.003Z,19.79
2022-08-03T05:51:13.613Z,19.70
2022-08-03T05:53:41.720Z,19.86
2022-08-03T05:56:14.018Z,20.28
2022-08-03T05:58:46.538Z,20.59
2022-08-03T06:01:13.576Z,20.85
2022-08-03T06:03:40.639Z,21.09
2022-08-03T06:06:07.402Z,21.23
2022-08-03T06:08:34.661Z,21.09
2022-08-03T06:11:01.391Z,20.92
2022-08-03T06:13:28.028Z,20.86
2022-08-03T06:15:54.924Z,20.78
2022-08-03T06:18:21.667Z,20.73
2022-08-03T06:20:49.395Z,20.79
2022-08-03T06:23:18.051Z,20.82
2022-08-03T06:25:45.559Z,20.84
2022-08-03T06:31:01.132Z,21.04
2022-08-03T06:33:48.498Z,21.21
2022-08-03T06:36:15.304Z,21.35
2022-08-03T06:38:42.059Z,21.52
2022-08-03T06:41:08.826Z,21.66
2022-08-03T06:43:37.807Z,21.76
2022-08-03T06:46:08.089Z,21.82
2022-08-03T06:48:34.743Z,21.89
2022-08-03T06:51:01.368Z,21.98
2022-08-03T06:53:28.128Z,22.21
2022-08-03T06:55:55.414Z,22.32
2022-08-03T06:58:22.843Z,22.27
2022-08-03T07:00:49.840Z,22.28
2022-08-03T07:03:17.202Z,22.23
2022-08-03T07:05:46.619Z,22.23
2022-08-03T07:08:14.344Z,22.14
2022-08-03T07:10:41.201Z,22.15
2022-08-03T07:13:08.195Z,22.27
2022-08-03T07:15:38.356Z,22.29
2022-08-03T07:18:24.661Z,22.37
2022-08-03T07:20:56.944Z,22.63
2022-08-03T07:23:23.784Z,22.90
2022-08-03T07:25:51.032Z,23.06
2022-08-03T07:28:18.168Z,23.08
2022-08-03T07:30:44.919Z,23.14
2022-08-03T07:33:11.786Z,23.19
2022-08-03T07:35:38.786Z,23.31
2022-08-03T07:38:05.657Z,23.52
2022-08-03T07:40:32.455Z,23.78
2022-08-03T07:43:00.520Z,23.96
2022-08-03T07:45:27.256Z,24.21
2022-08-03T07:47:54.577Z,24.31
2022-08-03T07:50:22.253Z,24.25
2022-08-03T07:52:50.632Z,24.39
2022-08-03T07:55:21.855Z,24.50
2022-08-03T07:58:10.026Z,24.74
2022-08-03T08:00:36.845Z,25.01
2022-08-03T08:03:04.209Z,25.22
2022-08-03T08:05:31.195Z,25.24
2022-08-03T08:07:57.958Z,25.34
2022-08-03T08:10:24.725Z,25.49
2022-08-03T08:12:51.851Z,25.68
2022-08-03T08:15:18.953Z,25.86
2022-08-03T08:17:47.161Z,25.95
2022-08-03T08:20:23.818Z,25.95
2022-08-03T08:23:01.275Z,25.98
2022-08-03T08:25:29.385Z,26.20
2022-08-03T08:28:22.412Z,26.35
2022-08-03T08:30:42.942Z,26.35
2022-08-03T08:33:15.702Z,26.51
2022-08-03T08:35:51.357Z,26.60
2022-08-03T08:38:18.224Z,26.52
2022-08-03T08:40:45.216Z,26.57
2022-08-03T08:43:11.857Z,26.79
2022-08-03T08:45:38.853Z,26.97
2022-08-03T08:48:08.470Z,27.10
2022-08-03T08:50:37.781Z,27.34
2022-08-03T08:53:09.636Z,27.53
2022-08-03T08:55:58.476Z,27.66
2022-08-03T08:58:26.481Z,27.77
2022-08-03T09:00:53.227Z,27.72
2022-08-03T09:03:29.127Z,27.72
2022-08-03T09:06:01.078Z,28.02
2022-08-03T09:08:29.965Z,28.21
2022-08-03T09:10:56.838Z,28.38
2022-08-03T09:13:23.597Z,28.48
2022-08-03T09:16:13.161Z,28.44
2022-08-03T09:18:40.276Z,28.57
2022-08-03T09:21:33.265Z,28.75
2022-08-03T09:24:04.712Z,28.71
2022-08-03T09:26:34.751Z,28.58
2022-08-03T09:29:09.642Z,28.58
2022-08-03T09:31:45.926Z,28.68
2022-08-03T09:34:17.474Z,28.67
2022-08-03T09:36:46.716Z,28.67
2022-08-03T09:39:19.498Z,28.97
2022-08-03T09:42:18.346Z,29.08
2022-08-03T09:44:47.720Z,29.08
2022-08-03T09:47:17.017Z,29.27
2022-08-03T09:50:02.230Z,29.37
2022-08-03T09:52:50.127Z,29.52
2022-08-03T09:56:01.799Z,29.60
2022-08-03T09:58:10.451Z,29.62
2022-08-03T10:00:57.744Z,29.72
2022-08-03T10:03:26.809Z,29.85
2022-08-03T10:05:58.983Z,29.99
2022-08-03T10:08:26.557Z,30.01
2022-08-03T10:10:58.693Z,29.98
2022-08-03T10:13:25.603Z,30.05
2022-08-03T10:16:23.005Z,30.02
2022-08-03T10:18:38.940Z,30.14
2022-08-03T10:21:10.592Z,30.29
2022-08-03T10:23:38.910Z,30.41
2022-08-03T10:26:07.976Z,30.46
2022-08-03T10:28:47.088Z,30.58
2022-08-03T10:31:14.550Z,30.62
2022-08-03T10:33:52.899Z,30.64
2022-08-03T10:36:24.273Z,30.76
2022-08-03T10:38:53.398Z,30.73
2022-08-03T10:41:22.951Z,30.84
2022-08-03T10:44:10.694Z,30.93
2022-08-03T10:46:44.735Z,30.92
2022-08-03T10:49:16.743Z,31.07
2022-08-03T10:51:59.890Z,31.21
2022-08-03T10:55:00.748Z,31.33
2022-08-03T10:57:58.521Z,31.55
2022-08-03T11:00:27.660Z,31.64
2022-08-03T11:03:12.722Z,31.54
2022-08-03T11:05:42.748Z,31.69
2022-08-03T11:08:29.403Z,31.73
2022-08-03T11:10:58.803Z,31.82
2022-08-03T11:13:30.962Z,31.84
2022-08-03T11:16:02.988Z,31.85
2022-08-03T11:18:31.815Z,31.83
2022-08-03T11:21:00.507Z,31.94
2022-08-03T11:24:04.386Z,32.11
2022-08-03T11:26:33.085Z,32.28
2022-08-03T11:29:27.498Z,32.39
2022-08-03T11:31:54.224Z,32.22
2022-08-03T11:34:20.987Z,32.13
2022-08-03T11:37:28.831Z,32.23
2022-08-03T11:39:59.741Z,32.33
2022-08-03T11:42:27.230Z,32.37
2022-08-03T11:44:55.914Z,32.26
2022-08-03T11:47:24.479Z,32.32
2022-08-03T11:49:53.985Z,32.43
2022-08-03T11:52:26.680Z,32.60
2022-08-03T11:54:56.535Z,32.54
2022-08-03T11:59:00.955Z,32.64
2022-08-03T12:00:22.648Z,32.65
2022-08-03T12:03:09.308Z,32.77
2022-08-03T12:05:52.569Z,33.02
2022-08-03T12:08:33.474Z,33.13
2022-08-03T12:11:04.549Z,33.32
2022-08-03T12:14:32.973Z,33.23
2022-08-03T12:16:35.605Z,33.09
2022-08-03T12:19:05.486Z,33.19
2022-08-03T12:21:32.354Z,33.31
2022-08-03T12:24:04.640Z,33.39
2022-08-03T12:26:58.261Z,33.23
2022-08-03T12:29:26.882Z,33.17
2022-08-03T12:31:53.712Z,33.24
2022-08-03T12:34:20.493Z,33.32
2022-08-03T12:36:59.348Z,33.53
2022-08-03T12:39:30.849Z,33.59
2022-08-03T12:41:57.784Z,33.67
2022-08-03T12:44:32.100Z,33.64
2022-08-03T12:46:59.699Z,33.53
2022-08-03T12:49:26.763Z,33.35
2022-08-03T12:51:53.575Z,33.42
2022-08-03T12:54:32.574Z,33.61
2022-08-03T12:57:02.241Z,33.86
2022-08-03T12:59:34.913Z,33.95
2022-08-03T13:02:04.685Z,33.87
2022-08-03T13:04:36.774Z,33.89
2022-08-03T13:07:05.209Z,33.93
2022-08-03T13:09:47.934Z,33.72
2022-08-03T13:12:16.246Z,33.59
2022-08-03T13:14:44.819Z,33.62
2022-08-03T13:17:11.802Z,33.89
2022-08-03T13:19:39.657Z,33.78
2022-08-03T13:22:19.718Z,33.67
2022-08-03T13:24:49.115Z,33.74
2022-08-03T13:28:02.255Z,33.65
2022-08-03T13:30:04.147Z,33.29
2022-08-03T13:32:31.001Z,33.36
2022-08-03T13:34:57.751Z,33.43
2022-08-03T13:37:25.060Z,33.57
2022-08-03T13:39:59.147Z,33.30
2022-08-03T13:42:34.943Z,33.50
2022-08-03T13:45:02.543Z,33.41
2022-08-03T13:47:29.420Z,33.44
2022-08-03T13:50:01.452Z,33.50
2022-08-03T13:52:36.573Z,33.12
2022-08-03T13:55:06.047Z,32.99
2022-08-03T13:58:04.605Z,33.07
2022-08-03T14:00:26.437Z,32.93
2022-08-03T14:03:02.820Z,32.90
2022-08-03T14:05:33.259Z,33.01
2022-08-03T14:08:05.805Z,33.16
2022-08-03T14:10:38.767Z,33.14
2022-08-03T14:13:06.141Z,33.25
2022-08-03T14:15:38.003Z,33.22
2022-08-03T14:18:06.363Z,33.33
2022-08-03T14:20:38.683Z,33.31
2022-08-03T14:23:15.719Z,33.36
2022-08-03T14:25:43.195Z,33.37
2022-08-03T14:28:17.035Z,33.40
2022-08-03T14:30:43.683Z,33.09
2022-08-03T14:33:10.433Z,32.87
2022-08-03T14:35:37.197Z,32.71
2022-08-03T14:38:03.950Z,32.77
2022-08-03T14:40:30.587Z,32.74
2022-08-03T14:42:57.350Z,32.72
2022-08-03T14:45:24.226Z,32.80
2022-08-03T14:50:29.015Z,32.86
2022-08-03T14:50:44.143Z,32.91
2022-08-03T14:53:12.584Z,32.83
2022-08-03T14:55:49.413Z,32.76
2022-08-03T14:58:21.166Z,32.89
2022-08-03T15:00:49.916Z,32.90
2022-08-03T15:03:17.627Z,32.77
2022-08-03T15:05:44.789Z,32.30
2022-08-03T15:08:11.636Z,32.36
2022-08-03T15:10:44.050Z,32.48
2022-08-03T15:13:12.719Z,32.46
2022-08-03T15:15:39.688Z,32.42
2022-08-03T15:18:06.450Z,32.32
2022-08-03T15:20:43.837Z,32.19
2022-08-03T15:23:12.716Z,32.20
2022-08-03T15:26:28.055Z,32.10
2022-08-03T15:28:26.237Z,32.03
2022-08-03T15:30:53.238Z,32.02
2022-08-03T15:33:20.237Z,32.04
2022-08-03T15:35:47.779Z,31.99
2022-08-03T15:38:14.594Z,31.84
2022-08-03T15:40:41.715Z,31.71
2022-08-03T15:43:08.471Z,31.57
2022-08-03T15:45:36.255Z,31.59
2022-08-03T15:48:06.914Z,31.68
2022-08-03T15:50:33.672Z,31.57
2022-08-03T15:53:00.321Z,31.43
2022-08-03T15:55:27.319Z,31.40
2022-08-03T15:59:10.431Z,31.25
2022-08-03T16:00:41.944Z,31.06
2022-08-03T16:03:09.062Z,30.92
2022-08-03T16:05:35.936Z,30.85
2022-08-03T16:08:05.058Z,30.83
2022-08-03T16:10:33.952Z,30.86
2022-08-03T16:13:00.781Z,30.78
2022-08-03T16:15:28.029Z,30.70
2022-08-03T16:17:55.248Z,30.67
2022-08-03T16:20:34.217Z,30.64
2022-08-03T16:23:11.215Z,30.65
2022-08-03T16:25:43.002Z,30.53
2022-08-03T16:28:17.121Z,30.48
2022-08-03T16:30:45.642Z,30.37
2022-08-03T16:33:17.218Z,30.26
2022-08-03T16:35:45.997Z,30.20
2022-08-03T16:38:18.337Z,30.25
2022-08-03T16:40:47.033Z,30.29
2022-08-03T16:43:18.222Z,30.32
2022-08-03T16:45:45.513Z,30.34
2022-08-03T16:48:12.270Z,30.35
2022-08-03T16:50:39.146Z,30.39
2022-08-03T16:53:09.220Z,30.38
2022-08-03T16:55:51.734Z,30.31
2022-08-03T16:58:34.481Z,30.25
2022-08-03T17:01:21.972Z,30.14
2022-08-03T17:04:01.475Z,30.04
2022-08-03T17:06:35.479Z,30.03
2022-08-03T17:09:12.017Z,30.01
2022-08-03T17:11:47.315Z,30.00
2022-08-03T17:14:16.763Z,30.02
2022-08-03T17:16:52.054Z,30.01
2022-08-03T17:19:21.495Z,29.91
2022-08-03T17:22:10.609Z,29.68
2022-08-03T17:24:45.139Z,29.57
2022-08-03T17:28:42.409Z,29.49
2022-08-03T17:30:11.997Z,29.40
2022-08-03T17:32:57.169Z,29.26
2022-08-03T17:35:36.465Z,29.13
2022-08-03T17:38:08.890Z,29.05
2022-08-03T17:40:38.071Z,29.00
2022-08-03T17:44:12.934Z,28.95
2022-08-03T17:45:54.732Z,28.96
2022-08-03T17:48:25.241Z,28.96
2022-08-03T17:50:57.714Z,28.87
2022-08-03T17:53:29.511Z,28.77
2022-08-03T18:00:26.388Z,28.65
2022-08-03T18:03:18.498Z,28.64
2022-08-03T18:06:11.370Z,28.51
2022-08-03T18:08:38.978Z,28.40
2022-08-03T18:11:14.604Z,28.38
2022-08-03T18:13:58.176Z,28.35
2022-08-03T18:16:31.177Z,28.33
2022-08-03T18:19:00.464Z,28.24
2022-08-03T18:22:02.230Z,28.15
2022-08-03T18:24:25.649Z,28.11
2022-08-03T18:26:54.695Z,28.05
2022-08-03T18:29:26.037Z,28.04
2022-08-03T18:32:13.370Z,27.97
2022-08-03T18:34:54.166Z,27.94
2022-08-03T18:37:25.151Z,27.95
2022-08-03T18:39:57.776Z,27.94
2022-08-03T18:42:25.739Z,27.89
2022-08-03T18:44:56.004Z,27.87
2022-08-03T18:47:51.821Z,27.81
2022-08-03T18:50:49.535Z,27.66
2022-08-03T18:54:02.588Z,27.60
2022-08-03T18:56:21.546Z,27.44
2022-08-03T18:59:03.664Z,27.42
2022-08-03T19:01:58.038Z,27.34
2022-08-03T19:04:34.175Z,27.28
2022-08-03T19:07:06.988Z,27.17
2022-08-03T19:09:54.664Z,27.05
2022-08-03T19:12:42.745Z,26.95
2022-08-03T19:15:15.716Z,26.92
2022-08-03T19:17:50.362Z,26.84
2022-08-03T19:20:25.854Z,26.76
2022-08-03T19:22:54.531Z,26.69
2022-08-03T19:25:34.769Z,26.61
2022-08-03T19:28:05.893Z,26.50
2022-08-03T19:30:38.800Z,26.40
2022-08-03T19:33:16.005Z,26.29
2022-08-03T19:35:55.051Z,26.22
2022-08-03T19:38:28.311Z,26.17
2022-08-03T19:41:02.378Z,26.11
2022-08-03T19:43:52.519Z,26.05
2022-08-03T19:46:30.645Z,26.01
2022-08-03T19:49:15.212Z,25.95
2022-08-03T19:52:02.538Z,25.89
2022-08-03T19:54:45.507Z,25.79
2022-08-03T19:57:19.583Z,25.71
2022-08-03T19:59:50.299Z,25.64
2022-08-03T20:02:27.268Z,25.54
2022-08-03T20:05:14.806Z,25.46
2022-08-03T20:07:47.453Z,25.39
2022-08-03T20:10:15.500Z,25.30
2022-08-03T20:12:47.212Z,25.23
2022-08-03T20:15:14.055Z,25.15
2022-08-03T20:17:56.355Z,25.09
2022-08-03T20:20:37.145Z,25.00
2022-08-03T20:23:11.538Z,24.90
2022-08-03T20:25:48.604Z,24.82
2022-08-03T20:28:49.816Z,24.76
2022-08-03T20:31:18.248Z,24.68
2022-08-03T20:33:48.869Z,24.59
2022-08-03T20:36:18.520Z,24.51
2022-08-03T20:38:51.925Z,24.43
2022-08-03T20:41:20.403Z,24.40
2022-08-03T20:43:49.377Z,24.37
2022-08-03T20:46:31.015Z,24.28
2022-08-03T20:49:06.548Z,24.21
2022-08-03T20:51:49.855Z,24.16
2022-08-03T20:54:30.520Z,24.08
2022-08-03T20:57:09.542Z,24.00
2022-08-03T20:59:50.109Z,23.91
2022-08-03T21:02:29.945Z,23.86
2022-08-03T21:05:03.492Z,23.79
2022-08-03T21:08:03.749Z,23.75
2022-08-03T21:10:30.027Z,23.69
2022-08-03T21:13:16.149Z,23.65
2022-08-03T21:16:01.108Z,23.58
2022-08-03T21:18:49.071Z,23.53
2022-08-03T21:21:18.357Z,23.51
2022-08-03T21:23:49.923Z,23.44
2022-08-03T21:26:21.823Z,23.39
2022-08-03T21:28:50.010Z,23.34
2022-08-03T21:31:24.723Z,23.29
2022-08-03T21:33:56.626Z,23.22
2022-08-03T21:36:25.895Z,23.18
2022-08-03T21:38:56.511Z,23.12
2022-08-03T21:41:24.442Z,23.07
2022-08-03T21:43:51.200Z,23.04
2022-08-03T21:46:20.034Z,23.00
2022-08-03T21:48:52.282Z,22.94
2022-08-03T21:51:22.277Z,22.90
2022-08-03T21:54:02.490Z,22.89
2022-08-03T21:56:51.671Z,22.83
2022-08-03T21:59:20.373Z,22.76
2022-08-03T22:01:48.829Z,22.70
2022-08-03T22:04:50.963Z,22.65
2022-08-03T22:07:08.623Z,22.60
2022-08-03T22:09:36.319Z,22.55
2022-08-03T22:12:04.155Z,22.50
2022-08-03T22:14:33.074Z,22.46
2022-08-03T22:17:00.930Z,22.42
2022-08-03T22:19:38.338Z,22.40
2022-08-03T22:22:08.576Z,22.36
2022-08-03T22:24:38.698Z,22.30
2022-08-03T22:27:24.231Z,22.27
2022-08-03T22:29:53.111Z,22.20
2022-08-03T22:32:20.471Z,22.16
2022-08-03T22:34:48.896Z,22.13
2022-08-03T22:37:20.590Z,22.08
2022-08-03T22:39:49.850Z,22.04
2022-08-03T22:42:17.330Z,22.00
2022-08-03T22:44:45.407Z,21.97
2022-08-03T22:47:13.961Z,21.90
2022-08-03T22:50:31.772Z,21.85
2022-08-03T22:52:41.814Z,21.79
2022-08-03T22:55:12.036Z,21.73
2022-08-03T22:57:55.797Z,21.71
2022-08-03T23:00:24.285Z,21.69
2022-08-03T23:02:52.099Z,21.64
2022-08-03T23:06:01.021Z,21.60
2022-08-03T23:08:18.269Z,21.54
2022-08-03T23:10:47.664Z,21.52
2022-08-03T23:13:17.430Z,21.50
2022-08-03T23:15:55.461Z,21.45
2022-08-03T23:18:23.659Z,21.40
2022-08-03T23:20:52.462Z,21.34
2022-08-03T23:23:20.756Z,21.32
2022-08-03T23:25:50.304Z,21.26
2022-08-03T23:28:17.417Z,21.23
2022-08-03T23:30:45.735Z,21.21
2022-08-03T23:33:16.570Z,21.15
2022-08-03T23:36:29.553Z,21.10
2022-08-03T23:38:46.927Z,21.08
2022-08-03T23:41:15.011Z,21.06
2022-08-03T23:43:51.915Z,21.04
2022-08-03T23:46:22.738Z,21.02
2022-08-03T23:48:51.049Z,20.97
2022-08-03T23:51:30.244Z,20.92
2022-08-03T23:54:15.030Z,20.90
2022-08-03T23:57:28.920Z,20.88
